Time;durP1;ratioP1;P1;durP2;ratioP2;P2;SDS_P1;SDS_P2;PMS_P1;PMS_P2;Temp;Humidity;BMP_temperature;BMP_pressure;BME280_temperature;BME280_humidity;BME280_pressure;Samples;Min_cycle;Max_cycle;Signal;HPM_P1;HPM_P2
2021/12/11 00:01:42;;;;;;;;;0.00;0.00;;;;;;;;5165171;27;8991;-78
2021/12/11 00:04:16;;;;;;;;;0.00;0.00;;;;;;;;5184147;27;8800;-78
2021/12/11 00:06:43;;;;;;;;;1.00;0.00;;;;;;;;5184213;27;8883;-78
2021/12/11 00:09:11;;;;;;;;;0.00;0.00;;;;;;;;5184457;27;11400;-78
2021/12/11 00:11:38;;;;;;;;;0.00;0.00;;;;;;;;5183884;27;11451;-79
2021/12/11 00:14:05;;;;;;;;;0.00;0.00;;;;;;;;5184359;27;11365;-77
2021/12/11 00:16:31;;;;;;;;;0.00;0.00;;;;;;;;5184748;27;11372;-77
2021/12/11 00:19:02;;;;;;;;;0.00;0.00;;;;;;;;5184554;27;11392;-77
2021/12/11 00:21:28;;;;;;;;;0.00;0.00;;;;;;;;5185026;27;11514;-78
2021/12/11 00:24:16;;;;;;;;;0.00;0.00;;;;;;;;5184832;27;11357;-77
2021/12/11 00:26:43;;;;;;;;;0.00;0.00;;;;;;;;5170743;27;8782;-78
2021/12/11 00:29:10;;;;;;;;;0.00;0.00;;;;;;;;5184120;27;11391;-78
2021/12/11 00:31:36;;;;;;;;;1.33;0.00;;;;;;;;5184570;27;11288;-79
2021/12/11 00:34:03;;;;;;;;;0.00;0.00;;;;;;;;5183586;27;11444;-78
2021/12/11 00:36:32;;;;;;;;;0.67;0.00;;;;;;;;5184265;27;11368;-79
2021/12/11 00:39:04;;;;;;;;;0.00;0.00;;;;;;;;5184466;27;11438;-79
2021/12/11 00:41:32;;;;;;;;;0.00;0.00;;;;;;;;5184660;27;12467;-78
2021/12/11 00:44:01;;;;;;;;;0.00;0.00;;;;;;;;5184377;27;11509;-79
2021/12/11 00:46:29;;;;;;;;;0.00;0.00;;;;;;;;5183768;27;11358;-79
2021/12/11 00:49:12;;;;;;;;;0.00;0.00;;;;;;;;5184442;27;11509;-79
2021/12/11 00:51:37;;;;;;;;;0.00;0.00;;;;;;;;5183681;27;11413;-79
2021/12/11 00:54:03;;;;;;;;;0.00;0.00;;;;;;;;5164679;27;11370;-78
2021/12/11 00:56:47;;;;;;;;;0.00;0.00;;;;;;;;5184667;27;8754;-77
2021/12/11 00:59:17;;;;;;;;;0.00;0.00;;;;;;;;5183204;27;8873;-77
2021/12/11 01:01:49;;;;;;;;;0.00;0.00;;;;;;;;5183853;27;11433;-78
2021/12/11 01:04:19;;;;;;;;;0.00;0.00;;;;;;;;5183766;27;11372;-78
2021/12/11 01:06:47;;;;;;;;;0.00;0.00;;;;;;;;5184059;27;11377;-78
2021/12/11 01:09:15;;;;;;;;;0.00;0.00;;;;;;;;5182949;27;11378;-79
2021/12/11 01:11:58;;;;;;;;;0.00;0.00;;;;;;;;5184117;27;11351;-78
2021/12/11 01:14:32;;;;;;;;;0.00;0.00;;;;;;;;5183660;27;11361;-78
2021/12/11 01:17:01;;;;;;;;;0.00;0.00;;;;;;;;5183171;27;11551;-78
2021/12/11 01:19:28;;;;;;;;;0.00;0.00;;;;;;;;5183814;27;11394;-77
2021/12/11 01:21:59;;;;;;;;;0.00;0.00;;;;;;;;5183673;27;11398;-78
2021/12/11 01:24:41;;;;;;;;;1.00;0.00;;;;;;;;5183261;27;11497;-78
2021/12/11 01:27:08;;;;;;;;;0.00;0.00;;;;;;;;5183112;27;11391;-78
2021/12/11 01:29:33;;;;;;;;;0.00;0.00;;;;;;;;5183495;27;11548;-77
2021/12/11 01:32:00;;;;;;;;;0.00;0.00;;;;;;;;5184192;27;8878;-78
2021/12/11 01:34:27;;;;;;;;;1.00;1.00;;;;;;;;5183245;27;8797;-78
2021/12/11 01:36:52;;;;;;;;;0.00;0.00;;;;;;;;5183416;27;8916;-78
2021/12/11 01:39:20;;;;;;;;;2.00;0.67;;;;;;;;5184409;27;11471;-78
2021/12/11 01:41:47;;;;;;;;;1.00;0.00;;;;;;;;5183228;27;11379;-78
2021/12/11 01:44:14;;;;;;;;;2.00;1.00;;;;;;;;5182940;27;11421;-76
2021/12/11 01:46:39;;;;;;;;;1.00;1.00;;;;;;;;5183088;27;8928;-78
2021/12/11 01:49:07;;;;;;;;;0.00;0.00;;;;;;;;5182493;27;8852;-76
2021/12/11 01:51:39;;;;;;;;;3.00;2.00;;;;;;;;5183233;27;8839;-77
2021/12/11 01:54:12;;;;;;;;;3.00;3.00;;;;;;;;5182939;27;9666;-77
2021/12/11 01:56:41;;;;;;;;;2.33;2.33;;;;;;;;5183141;27;8778;-77
2021/12/11 01:59:08;;;;;;;;;3.00;3.00;;;;;;;;5182008;27;11570;-78
2021/12/11 02:01:37;;;;;;;;;7.00;5.00;;;;;;;;5183214;27;11393;-77
2021/12/11 02:04:03;;;;;;;;;5.00;3.00;;;;;;;;5182733;27;9006;-77
2021/12/11 02:06:30;;;;;;;;;3.00;3.00;;;;;;;;5183121;27;8778;-77
2021/12/11 02:08:56;;;;;;;;;1.00;1.00;;;;;;;;5182783;27;8786;-77
2021/12/11 02:11:23;;;;;;;;;6.00;5.00;;;;;;;;5182570;27;8878;-77
2021/12/11 02:13:54;;;;;;;;;5.00;5.00;;;;;;;;5163842;27;12085;-76
2021/12/11 02:16:25;;;;;;;;;5.33;5.33;;;;;;;;5182542;27;8809;-76
2021/12/11 02:18:54;;;;;;;;;9.00;7.00;;;;;;;;5183071;27;8905;-77
2021/12/11 02:21:27;;;;;;;;;6.00;6.00;;;;;;;;5182619;27;11558;-76
2021/12/11 02:24:03;;;;;;;;;8.33;6.00;;;;;;;;5182921;27;8821;-77
2021/12/11 02:26:29;;;;;;;;;5.00;5.00;;;;;;;;5183106;27;8800;-77
2021/12/11 02:28:57;;;;;;;;;5.67;5.67;;;;;;;;5182306;27;10429;-77
2021/12/11 02:31:29;;;;;;;;;9.33;7.00;;;;;;;;5182792;27;9724;-76
2021/12/11 02:34:08;;;;;;;;;7.00;6.67;;;;;;;;5182698;27;11671;-77
2021/12/11 02:36:39;;;;;;;;;9.00;7.00;;;;;;;;5165238;27;11875;-76
2021/12/11 02:39:12;;;;;;;;;11.00;7.00;;;;;;;;5166410;27;11738;-76
2021/12/11 02:41:49;;;;;;;;;10.00;7.00;;;;;;;;5185770;27;17593;-78
2021/12/11 02:44:23;;;;;;;;;6.00;6.00;;;;;;;;5185754;27;8758;-77
2021/12/11 02:46:48;;;;;;;;;9.00;7.00;;;;;;;;5186488;27;21451;-77
2021/12/11 02:49:14;;;;;;;;;8.33;6.67;;;;;;;;5186780;27;8906;-77
2021/12/11 02:51:39;;;;;;;;;6.00;6.00;;;;;;;;5186065;27;11284;-76
2021/12/11 02:54:07;;;;;;;;;6.33;6.33;;;;;;;;5185666;27;11322;-77
2021/12/11 02:56:38;;;;;;;;;6.00;6.00;;;;;;;;5186515;27;8961;-76
2021/12/11 02:59:09;;;;;;;;;5.00;5.00;;;;;;;;5185999;27;8871;-77
2021/12/11 03:01:42;;;;;;;;;3.00;3.00;;;;;;;;5186073;27;9658;-77
2021/12/11 03:04:17;;;;;;;;;6.00;5.00;;;;;;;;5186060;27;8767;-78
2021/12/11 03:06:46;;;;;;;;;5.67;5.00;;;;;;;;5186039;27;8854;-77
2021/12/11 03:09:13;;;;;;;;;3.67;3.00;;;;;;;;5184663;27;9065;-77
2021/12/11 03:11:38;;;;;;;;;3.33;2.00;;;;;;;;5167119;27;10701;-77
2021/12/11 03:14:05;;;;;;;;;5.00;3.00;;;;;;;;5185903;27;10894;-77
2021/12/11 03:16:32;;;;;;;;;5.00;5.00;;;;;;;;5185543;27;10405;-77
2021/12/11 03:18:58;;;;;;;;;5.33;4.33;;;;;;;;5185824;27;8818;-78
2021/12/11 03:21:23;;;;;;;;;6.00;3.00;;;;;;;;5185358;27;10541;-77
2021/12/11 03:23:50;;;;;;;;;2.67;2.67;;;;;;;;5185484;27;11524;-77
2021/12/11 03:26:15;;;;;;;;;5.00;5.00;;;;;;;;5185318;27;11579;-77
2021/12/11 03:28:40;;;;;;;;;2.00;2.00;;;;;;;;5184935;27;11313;-78
2021/12/11 03:31:07;;;;;;;;;3.00;3.00;;;;;;;;5184948;27;8789;-76
2021/12/11 03:33:35;;;;;;;;;2.00;2.00;;;;;;;;5185972;27;8788;-77
2021/12/11 03:36:02;;;;;;;;;2.33;2.33;;;;;;;;5185646;27;9702;-77
2021/12/11 03:38:27;;;;;;;;;3.00;3.00;;;;;;;;5185345;27;9004;-78
2021/12/11 03:40:54;;;;;;;;;3.00;2.00;;;;;;;;5185000;27;11812;-77
2021/12/11 03:43:20;;;;;;;;;4.33;2.00;;;;;;;;5185555;27;8780;-77
2021/12/11 03:45:47;;;;;;;;;1.00;1.00;;;;;;;;5184458;27;9005;-77
2021/12/11 03:48:32;;;;;;;;;1.00;1.00;;;;;;;;5185209;27;10351;-77
2021/12/11 03:50:58;;;;;;;;;2.33;2.00;;;;;;;;5185172;27;8856;-76
2021/12/11 03:53:23;;;;;;;;;1.00;1.00;;;;;;;;5184595;27;11649;-76
2021/12/11 03:55:51;;;;;;;;;1.67;1.00;;;;;;;;5184595;27;10257;-77
2021/12/11 03:58:16;;;;;;;;;1.00;1.00;;;;;;;;5185023;27;9612;-77
2021/12/11 04:01:06;;;;;;;;;1.33;1.33;;;;;;;;5165841;27;8822;-77
2021/12/11 04:03:32;;;;;;;;;0.67;0.00;;;;;;;;5184921;27;9048;-77
2021/12/11 04:05:59;;;;;;;;;2.00;1.00;;;;;;;;5184294;27;11397;-77
2021/12/11 04:08:27;;;;;;;;;1.00;1.00;;;;;;;;5183879;27;11577;-76
2021/12/11 04:10:53;;;;;;;;;1.33;1.33;;;;;;;;5184659;27;9489;-78
2021/12/11 04:13:19;;;;;;;;;2.00;1.00;;;;;;;;5183888;27;8804;-77
2021/12/11 04:15:46;;;;;;;;;1.00;1.00;;;;;;;;5183694;27;11439;-77
2021/12/11 04:18:12;;;;;;;;;2.00;2.00;;;;;;;;5184583;27;8777;-77
2021/12/11 04:20:39;;;;;;;;;1.00;1.00;;;;;;;;5184429;27;8893;-77
2021/12/11 04:23:06;;;;;;;;;1.00;1.00;;;;;;;;5183669;27;9603;-76
2021/12/11 04:25:31;;;;;;;;;2.00;1.00;;;;;;;;5184792;27;8758;-77
2021/12/11 04:27:56;;;;;;;;;2.00;1.00;;;;;;;;5184403;27;8810;-77
2021/12/11 04:30:23;;;;;;;;;1.00;1.00;;;;;;;;5184589;27;8770;-79
2021/12/11 04:32:49;;;;;;;;;3.00;2.00;;;;;;;;5184088;27;8866;-78
2021/12/11 04:35:15;;;;;;;;;3.00;3.00;;;;;;;;5164898;27;8766;-77
2021/12/11 04:37:41;;;;;;;;;4.33;2.00;;;;;;;;5184510;27;9739;-78
2021/12/11 04:40:09;;;;;;;;;2.00;2.00;;;;;;;;5183546;27;10310;-79
2021/12/11 04:42:58;;;;;;;;;2.00;2.00;;;;;;;;5183884;27;8867;-77
2021/12/11 04:45:35;;;;;;;;;3.00;2.00;;;;;;;;5183951;27;8839;-77
2021/12/11 04:48:12;;;;;;;;;3.00;2.00;;;;;;;;5183406;27;8894;-78
2021/12/11 04:50:50;;;;;;;;;2.67;2.67;;;;;;;;5183925;27;8774;-77
2021/12/11 05:01:36;;;;;;;;;3.67;3.67;;;;;;;;5183501;27;10321;-77
2021/12/11 05:04:35;;;;;;;;;1.33;1.33;;;;;;;;5183004;27;11354;-78
2021/12/11 05:11:51;;;;;;;;;2.00;2.00;;;;;;;;5184324;27;10227;-78
2021/12/11 05:14:20;;;;;;;;;1.00;1.00;;;;;;;;5183664;27;8864;-78
2021/12/11 05:16:45;;;;;;;;;1.00;1.00;;;;;;;;5182929;27;9013;-74
2021/12/11 10:12:36;;;;;;;;;0.33;0.33;;;;;;;;5159998;27;1519044;-73
2021/12/11 10:15:04;;;;;;;;;0.00;0.00;;;;;;;;5200420;27;20766;-72
2021/12/11 10:17:36;;;;;;;;;0.00;0.00;;;;;;;;5200494;27;11389;-72
2021/12/11 10:20:06;;;;;;;;;0.00;0.00;;;;;;;;5199466;27;11473;-72
2021/12/11 10:22:33;;;;;;;;;0.00;0.00;;;;;;;;5199162;27;12341;-73
2021/12/11 10:24:59;;;;;;;;;0.00;0.00;;;;;;;;5200556;27;11338;-71
2021/12/11 10:27:25;;;;;;;;;1.25;0.00;;;;;;;;5200422;27;11417;-71
2021/12/11 10:29:52;;;;;;;;;0.00;0.00;;;;;;;;5200219;27;9021;-72
2021/12/11 10:32:20;;;;;;;;;0.00;0.00;;;;;;;;5200137;27;11400;-71
2021/12/11 10:34:48;;;;;;;;;0.00;0.00;;;;;;;;5200272;27;11379;-71
2021/12/11 10:37:16;;;;;;;;;1.00;1.00;;;;;;;;5200293;27;11423;-71
2021/12/11 10:39:43;;;;;;;;;0.00;0.00;;;;;;;;5199803;27;11378;-72
2021/12/11 10:42:09;;;;;;;;;0.00;0.00;;;;;;;;5199965;27;11473;-72
2021/12/11 10:44:37;;;;;;;;;0.50;0.00;;;;;;;;5199853;27;11399;-72
2021/12/11 10:47:08;;;;;;;;;0.00;0.00;;;;;;;;5200782;27;9708;-72
2021/12/11 10:49:34;;;;;;;;;0.00;0.00;;;;;;;;5200249;27;11469;-71
2021/12/11 10:52:05;;;;;;;;;0.50;0.00;;;;;;;;5199961;27;11525;-72
2021/12/11 10:54:30;;;;;;;;;1.00;1.00;;;;;;;;5199655;27;11469;-71
2021/12/11 10:56:55;;;;;;;;;0.00;0.00;;;;;;;;5199434;27;11496;-72
2021/12/11 10:59:23;;;;;;;;;0.00;0.00;;;;;;;;5200094;27;8766;-72
2021/12/11 11:01:51;;;;;;;;;0.00;0.00;;;;;;;;5180859;27;8786;-72
2021/12/11 11:04:19;;;;;;;;;0.25;0.00;;;;;;;;5199829;27;11352;-71
2021/12/11 11:06:45;;;;;;;;;0.00;0.00;;;;;;;;5199583;27;11375;-72
2021/12/11 11:09:11;;;;;;;;;0.00;0.00;;;;;;;;5199434;27;11377;-72
2021/12/11 11:11:37;;;;;;;;;0.00;0.00;;;;;;;;5199847;27;12263;-72
2021/12/11 11:14:04;;;;;;;;;0.50;0.50;;;;;;;;5200453;27;11487;-72
2021/12/11 11:16:29;;;;;;;;;0.00;0.00;;;;;;;;5199553;27;8781;-71
2021/12/11 11:18:55;;;;;;;;;1.00;1.00;;;;;;;;5199345;27;11365;-71
2021/12/11 11:21:22;;;;;;;;;0.00;0.00;;;;;;;;5198906;27;8900;-71
2021/12/11 11:23:48;;;;;;;;;1.00;1.00;;;;;;;;5186737;27;8754;-71
2021/12/11 11:26:16;;;;;;;;;0.00;0.00;;;;;;;;5185208;27;11538;-72
2021/12/11 11:28:41;;;;;;;;;0.00;0.00;;;;;;;;5185030;27;8750;-72
2021/12/11 11:31:09;;;;;;;;;0.25;0.25;;;;;;;;5185880;27;10881;-70
2021/12/11 11:33:34;;;;;;;;;0.00;0.00;;;;;;;;5185375;27;9561;-71
2021/12/11 11:36:00;;;;;;;;;1.00;1.00;;;;;;;;5184853;27;11460;-72
2021/12/11 11:38:28;;;;;;;;;0.00;0.00;;;;;;;;5184464;27;8812;-72
2021/12/11 11:40:56;;;;;;;;;0.00;0.00;;;;;;;;5185224;27;11375;-71
2021/12/11 11:43:22;;;;;;;;;1.75;0.00;;;;;;;;5185277;27;11570;-71
2021/12/11 11:45:52;;;;;;;;;1.00;0.00;;;;;;;;5185600;27;11349;-71
2021/12/11 11:48:18;;;;;;;;;1.00;0.00;;;;;;;;5184683;27;12188;-71
2021/12/11 11:50:46;;;;;;;;;0.00;0.00;;;;;;;;5185246;27;11370;-71
2021/12/11 11:53:13;;;;;;;;;0.00;0.00;;;;;;;;5185623;27;9225;-72
2021/12/11 11:55:42;;;;;;;;;1.00;1.00;;;;;;;;5184728;27;11449;-71
2021/12/11 11:58:08;;;;;;;;;2.25;1.25;;;;;;;;5185143;27;11478;-71
2021/12/11 12:00:43;;;;;;;;;1.00;1.00;;;;;;;;5185088;27;12300;-71
2021/12/11 12:03:11;;;;;;;;;0.00;0.00;;;;;;;;5184595;27;11614;-72
2021/12/11 12:05:37;;;;;;;;;0.00;0.00;;;;;;;;5185443;27;11348;-72
2021/12/11 12:08:07;;;;;;;;;0.25;0.00;;;;;;;;5185203;27;12059;-71
2021/12/11 12:10:33;;;;;;;;;0.00;0.00;;;;;;;;5185033;27;8926;-71
2021/12/11 12:12:58;;;;;;;;;0.00;0.00;;;;;;;;5184842;27;11481;-72
2021/12/11 12:15:34;;;;;;;;;0.00;0.00;;;;;;;;5184810;27;11514;-72
2021/12/11 12:18:00;;;;;;;;;0.00;0.00;;;;;;;;5184473;27;8777;-73
2021/12/11 12:20:25;;;;;;;;;0.00;0.00;;;;;;;;5165214;27;11530;-72
2021/12/11 12:22:52;;;;;;;;;0.75;0.75;;;;;;;;5185293;27;8777;-72
2021/12/11 12:25:18;;;;;;;;;0.00;0.00;;;;;;;;5184540;27;8754;-71
2021/12/11 12:27:44;;;;;;;;;0.00;0.00;;;;;;;;5184454;27;11407;-71
2021/12/11 12:30:16;;;;;;;;;0.00;0.00;;;;;;;;5184052;27;8869;-71
2021/12/11 12:32:42;;;;;;;;;0.00;0.00;;;;;;;;5184529;27;11376;-71
2021/12/11 12:35:09;;;;;;;;;0.00;0.00;;;;;;;;5183647;27;10862;-70
2021/12/11 12:37:35;;;;;;;;;0.00;0.00;;;;;;;;5183014;27;8814;-71
2021/12/11 12:40:02;;;;;;;;;0.00;0.00;;;;;;;;5165275;27;11493;-72
2021/12/11 12:42:37;;;;;;;;;0.00;0.00;;;;;;;;5184535;27;11494;-72
2021/12/11 12:45:05;;;;;;;;;0.25;0.25;;;;;;;;5181892;27;11413;-72
2021/12/11 12:47:35;;;;;;;;;0.75;0.00;;;;;;;;5162807;27;11512;-72
2021/12/11 12:50:03;;;;;;;;;0.00;0.00;;;;;;;;5182629;27;11451;-72
2021/12/11 12:52:34;;;;;;;;;3.00;1.00;;;;;;;;5182072;27;11398;-72
2021/12/11 12:55:01;;;;;;;;;0.00;0.00;;;;;;;;5182830;27;11380;-71
2021/12/11 12:57:28;;;;;;;;;0.00;0.00;;;;;;;;5182000;27;11668;-72
2021/12/11 12:59:57;;;;;;;;;0.00;0.00;;;;;;;;5183972;27;11370;-73
2021/12/11 13:02:24;;;;;;;;;0.75;0.75;;;;;;;;5184044;27;11375;-73
2021/12/11 13:04:55;;;;;;;;;0.00;0.00;;;;;;;;5182958;27;11929;-73
2021/12/11 13:07:21;;;;;;;;;0.00;0.00;;;;;;;;5181836;27;11417;-72
2021/12/11 13:09:58;;;;;;;;;0.00;0.00;;;;;;;;5181715;27;11388;-77
2021/12/11 13:12:28;;;;;;;;;0.00;0.00;;;;;;;;5173583;27;8822;-76
2021/12/11 13:14:56;;;;;;;;;0.50;0.00;;;;;;;;5179023;27;11541;-75
2021/12/11 13:17:24;;;;;;;;;0.00;0.00;;;;;;;;5179925;27;12291;-75
2021/12/11 13:20:06;;;;;;;;;0.00;0.00;;;;;;;;5181022;27;11358;-74
2021/12/11 13:22:34;;;;;;;;;0.50;0.00;;;;;;;;5180398;27;11389;-73
2021/12/11 13:25:03;;;;;;;;;0.00;0.00;;;;;;;;5182667;27;11606;-76
2021/12/11 13:27:28;;;;;;;;;1.25;0.00;;;;;;;;5182663;27;11534;-75
2021/12/11 13:29:57;;;;;;;;;0.00;0.00;;;;;;;;5182161;27;11490;-72
2021/12/11 13:32:24;;;;;;;;;1.00;0.00;;;;;;;;5183020;27;8901;-73
2021/12/11 13:34:51;;;;;;;;;0.00;0.00;;;;;;;;5182971;27;11455;-74
2021/12/11 13:37:18;;;;;;;;;0.00;0.00;;;;;;;;5183185;27;11413;-73
2021/12/11 13:39:45;;;;;;;;;0.00;0.00;;;;;;;;5183005;27;11370;-76
2021/12/11 13:42:12;;;;;;;;;0.25;0.00;;;;;;;;5182268;27;11401;-75
2021/12/11 13:44:39;;;;;;;;;1.00;1.00;;;;;;;;5183393;27;11410;-79
2021/12/11 13:47:06;;;;;;;;;1.50;1.50;;;;;;;;5161907;27;12817;-77
2021/12/11 13:49:32;;;;;;;;;0.00;0.00;;;;;;;;5183043;27;11394;-77
2021/12/11 13:51:57;;;;;;;;;0.00;0.00;;;;;;;;5183526;27;11474;-77
2021/12/11 13:54:24;;;;;;;;;0.00;0.00;;;;;;;;5183402;27;8820;-77
2021/12/11 13:56:52;;;;;;;;;2.00;0.25;;;;;;;;5182993;27;8754;-78
2021/12/11 13:59:18;;;;;;;;;1.75;0.00;;;;;;;;5182867;27;11436;-78
2021/12/11 14:01:44;;;;;;;;;0.00;0.00;;;;;;;;5182709;27;12927;-74
2021/12/11 14:04:12;;;;;;;;;0.00;0.00;;;;;;;;5182293;27;11349;-74
2021/12/11 14:06:47;;;;;;;;;0.25;0.00;;;;;;;;5183223;27;9530;-75
2021/12/11 14:09:14;;;;;;;;;0.00;0.00;;;;;;;;5182821;27;11381;-71
2021/12/11 14:11:40;;;;;;;;;1.00;1.00;;;;;;;;5182231;27;11488;-76
2021/12/11 14:14:07;;;;;;;;;0.50;0.00;;;;;;;;5180033;27;11537;-74
2021/12/11 14:16:33;;;;;;;;;0.00;0.00;;;;;;;;5182381;27;10354;-75
2021/12/11 14:18:58;;;;;;;;;0.00;0.00;;;;;;;;5163434;27;11431;-73
2021/12/11 14:21:24;;;;;;;;;2.00;1.00;;;;;;;;5163971;27;8789;-76
2021/12/11 14:23:51;;;;;;;;;0.75;0.00;;;;;;;;5181987;27;8762;-73
2021/12/11 14:26:20;;;;;;;;;0.00;0.00;;;;;;;;5181852;27;11513;-73
2021/12/11 14:28:45;;;;;;;;;0.00;0.00;;;;;;;;5182003;27;11410;-73
2021/12/11 14:31:13;;;;;;;;;0.50;0.50;;;;;;;;5182229;27;11407;-72
2021/12/11 14:33:39;;;;;;;;;0.00;0.00;;;;;;;;5182271;27;8746;-72
2021/12/11 14:36:08;;;;;;;;;1.00;1.00;;;;;;;;5182327;27;11480;-73
2021/12/11 14:38:33;;;;;;;;;1.00;0.00;;;;;;;;5182077;27;8868;-74
2021/12/11 14:40:59;;;;;;;;;3.00;1.00;;;;;;;;5182075;27;11441;-74
2021/12/11 14:43:24;;;;;;;;;1.00;0.00;;;;;;;;5181808;27;8797;-73
2021/12/11 14:45:52;;;;;;;;;1.75;1.75;;;;;;;;5181664;27;10052;-72
2021/12/11 14:48:17;;;;;;;;;2.25;0.75;;;;;;;;5182319;27;10584;-73
2021/12/11 14:51:13;;;;;;;;;2.00;1.00;;;;;;;;5181819;27;11448;-72
2021/12/11 14:53:40;;;;;;;;;0.00;0.00;;;;;;;;5159861;27;10367;-76
2021/12/11 14:56:11;;;;;;;;;1.75;1.00;;;;;;;;5181497;27;11432;-76
2021/12/11 14:58:37;;;;;;;;;0.50;0.00;;;;;;;;5164713;27;12561;-76
2021/12/11 15:01:07;;;;;;;;;0.50;0.50;;;;;;;;5185697;27;11531;-76
2021/12/11 15:03:33;;;;;;;;;2.00;1.00;;;;;;;;5185570;27;11387;-75
2021/12/11 15:05:58;;;;;;;;;0.00;0.00;;;;;;;;5185317;27;11394;-74
2021/12/11 15:08:25;;;;;;;;;0.75;0.75;;;;;;;;5185949;27;8786;-76
2021/12/11 15:10:53;;;;;;;;;0.50;0.00;;;;;;;;5184602;27;8901;-72
2021/12/11 15:13:23;;;;;;;;;0.50;0.50;;;;;;;;5185162;27;11358;-74
2021/12/11 15:15:48;;;;;;;;;1.00;1.00;;;;;;;;5185216;27;11459;-75
2021/12/11 15:18:14;;;;;;;;;0.00;0.00;;;;;;;;5185289;27;11419;-76
2021/12/11 15:20:42;;;;;;;;;2.00;1.00;;;;;;;;5185405;27;9122;-77
2021/12/11 15:23:08;;;;;;;;;1.00;0.00;;;;;;;;5185394;27;8742;-81
2021/12/11 15:25:33;;;;;;;;;1.50;1.00;;;;;;;;5185294;27;11397;-81
2021/12/11 15:27:59;;;;;;;;;1.75;0.75;;;;;;;;5166481;27;12679;-76
2021/12/11 15:30:29;;;;;;;;;0.00;0.00;;;;;;;;5185385;27;10316;-76
2021/12/11 15:32:54;;;;;;;;;1.00;1.00;;;;;;;;5185298;27;11364;-73
2021/12/11 15:35:23;;;;;;;;;0.75;0.75;;;;;;;;5184908;27;11385;-72
2021/12/11 15:37:49;;;;;;;;;1.00;1.00;;;;;;;;5184651;27;11554;-74
2021/12/11 15:40:17;;;;;;;;;1.75;1.00;;;;;;;;5184728;27;11432;-75
2021/12/11 15:42:43;;;;;;;;;1.00;1.00;;;;;;;;5184672;27;8807;-75
2021/12/11 15:45:10;;;;;;;;;0.00;0.00;;;;;;;;5183970;27;11380;-76
2021/12/11 15:47:35;;;;;;;;;2.00;0.00;;;;;;;;5184944;27;8955;-74
2021/12/11 15:50:02;;;;;;;;;3.00;1.00;;;;;;;;5184839;27;11363;-74
2021/12/11 15:52:28;;;;;;;;;1.00;1.00;;;;;;;;5184291;27;8778;-76
2021/12/11 15:54:54;;;;;;;;;1.50;0.25;;;;;;;;5184152;27;11381;-75
2021/12/11 15:57:19;;;;;;;;;1.50;1.00;;;;;;;;5184922;27;11342;-77
2021/12/11 15:59:46;;;;;;;;;1.00;1.00;;;;;;;;5184927;27;8774;-75
2021/12/11 16:02:11;;;;;;;;;1.00;1.00;;;;;;;;5184891;27;8865;-73
2021/12/11 16:04:36;;;;;;;;;5.50;1.00;;;;;;;;5184246;27;12041;-73
2021/12/11 16:07:04;;;;;;;;;1.00;1.00;;;;;;;;5183965;27;8876;-75
2021/12/11 16:09:30;;;;;;;;;2.00;1.00;;;;;;;;5184580;27;8917;-76
2021/12/11 16:11:57;;;;;;;;;0.00;0.00;;;;;;;;5183915;27;12249;-74
2021/12/11 16:14:23;;;;;;;;;2.00;1.00;;;;;;;;5184282;27;9636;-74
2021/12/11 16:16:56;;;;;;;;;2.00;2.00;;;;;;;;5165426;27;12229;-77
2021/12/11 16:19:27;;;;;;;;;2.00;1.75;;;;;;;;5184747;27;11448;-79
2021/12/11 16:21:53;;;;;;;;;3.25;2.00;;;;;;;;5183689;27;12289;-79
2021/12/11 16:24:18;;;;;;;;;1.75;1.75;;;;;;;;5184162;27;12531;-76
2021/12/11 16:26:44;;;;;;;;;1.25;1.25;;;;;;;;5183926;27;11682;-77
2021/12/11 16:29:10;;;;;;;;;2.00;2.00;;;;;;;;5183803;27;9500;-78
2021/12/11 16:31:37;;;;;;;;;3.00;3.00;;;;;;;;5184787;27;11429;-78
2021/12/11 16:34:05;;;;;;;;;5.00;2.00;;;;;;;;5183383;27;8860;-72
2021/12/11 16:36:32;;;;;;;;;2.00;2.00;;;;;;;;5183257;27;11388;-74
2021/12/11 16:38:57;;;;;;;;;3.25;3.25;;;;;;;;5182904;27;11447;-73
2021/12/11 16:41:22;;;;;;;;;3.00;2.75;;;;;;;;5182431;27;11504;-73
2021/12/11 16:43:49;;;;;;;;;2.75;2.75;;;;;;;;5182546;27;9621;-74
2021/12/11 16:46:15;;;;;;;;;3.00;3.00;;;;;;;;5182280;27;8812;-82
2021/12/11 16:48:41;;;;;;;;;5.00;3.00;;;;;;;;5163977;27;11734;-75
2021/12/11 16:51:08;;;;;;;;;5.50;3.00;;;;;;;;5182562;27;11510;-78
2021/12/11 16:53:34;;;;;;;;;3.00;2.00;;;;;;;;5182927;27;8805;-77
2021/12/11 16:56:00;;;;;;;;;5.75;5.00;;;;;;;;5180462;27;11564;-79
2021/12/11 16:58:28;;;;;;;;;7.25;6.00;;;;;;;;5182450;27;11520;-74
2021/12/11 17:00:55;;;;;;;;;6.00;5.00;;;;;;;;5183080;27;9573;-76
2021/12/11 17:03:21;;;;;;;;;5.75;5.75;;;;;;;;5183682;27;11491;-77
2021/12/11 17:05:46;;;;;;;;;6.50;6.50;;;;;;;;5164843;27;12191;-77
2021/12/11 17:08:12;;;;;;;;;14.75;10.00;;;;;;;;5183892;27;11451;-78
2021/12/11 17:10:43;;;;;;;;;8.75;8.75;;;;;;;;5179268;27;22543;-78
2021/12/11 17:13:09;;;;;;;;;10.00;7.25;;;;;;;;5183999;27;22265;-78
2021/12/11 17:15:35;;;;;;;;;12.50;8.75;;;;;;;;5184027;27;21460;-78
2021/12/11 17:18:00;;;;;;;;;11.75;7.50;;;;;;;;5184367;27;11493;-78
2021/12/11 17:20:26;;;;;;;;;12.50;8.50;;;;;;;;5183727;27;10423;-77
2021/12/11 17:22:54;;;;;;;;;7.25;7.00;;;;;;;;5184104;27;10368;-77
2021/12/11 17:25:25;;;;;;;;;7.75;6.50;;;;;;;;5182413;27;21892;-78
2021/12/11 17:27:51;;;;;;;;;13.00;12.67;;;;;;;;5183407;27;11415;-78
2021/12/11 17:30:16;;;;;;;;;10.75;10.00;;;;;;;;5182720;27;22210;-78
2021/12/11 17:32:41;;;;;;;;;12.00;10.67;;;;;;;;5183286;27;12538;-77
2021/12/11 17:35:08;;;;;;;;;17.67;17.33;;;;;;;;5183636;27;12075;-77
2021/12/11 17:37:33;;;;;;;;;13.67;11.33;;;;;;;;5183244;27;11579;-80
2021/12/11 17:40:00;;;;;;;;;9.75;7.25;;;;;;;;5176095;27;11455;-82
2021/12/11 17:42:25;;;;;;;;;7.25;7.25;;;;;;;;5166813;27;22874;-81
2021/12/11 17:44:51;;;;;;;;;4.00;3.75;;;;;;;;5164548;27;11558;-78
2021/12/11 17:47:19;;;;;;;;;6.00;4.25;;;;;;;;5170536;27;10371;-78
2021/12/11 17:49:44;;;;;;;;;9.00;7.25;;;;;;;;5161884;27;11394;-76
2021/12/11 17:52:10;;;;;;;;;13.00;9.00;;;;;;;;5161724;27;12176;-77
2021/12/11 17:54:36;;;;;;;;;13.00;8.00;;;;;;;;5161079;27;22824;-78
2021/12/11 17:57:01;;;;;;;;;8.00;6.00;;;;;;;;5161841;27;8802;-77
2021/12/11 17:59:28;;;;;;;;;7.75;7.75;;;;;;;;5160730;27;23067;-77
2021/12/11 18:01:56;;;;;;;;;11.25;8.50;;;;;;;;5161416;27;11385;-78
2021/12/11 18:04:22;;;;;;;;;7.75;7.50;;;;;;;;5160927;27;22290;-77
2021/12/11 18:06:50;;;;;;;;;7.50;7.50;;;;;;;;5160854;27;21339;-78
2021/12/11 18:09:17;;;;;;;;;8.75;8.25;;;;;;;;5161821;27;8760;-78
2021/12/11 18:11:51;;;;;;;;;12.75;11.00;;;;;;;;5142302;27;13601;-77
2021/12/11 18:14:24;;;;;;;;;13.25;13.25;;;;;;;;5160633;27;23436;-77
2021/12/11 18:16:59;;;;;;;;;17.00;16.00;;;;;;;;5160591;27;11859;-76
2021/12/11 18:19:30;;;;;;;;;11.50;9.50;;;;;;;;5161150;27;11460;-77
2021/12/11 18:22:06;;;;;;;;;9.00;8.00;;;;;;;;5160419;27;21421;-79
2021/12/11 18:24:32;;;;;;;;;11.67;11.67;;;;;;;;5161411;27;22496;-78
2021/12/11 18:26:59;;;;;;;;;7.25;7.25;;;;;;;;5174530;27;22488;-77
2021/12/11 18:29:27;;;;;;;;;9.75;8.50;;;;;;;;5179603;27;24080;-76
2021/12/11 18:31:53;;;;;;;;;8.50;7.50;;;;;;;;5180424;27;11655;-75
2021/12/11 18:34:19;;;;;;;;;7.25;7.00;;;;;;;;5181351;27;11469;-75
2021/12/11 18:36:51;;;;;;;;;8.50;8.25;;;;;;;;5184097;27;11525;-78
2021/12/11 18:39:26;;;;;;;;;15.00;12.33;;;;;;;;5185848;27;11406;-76
2021/12/11 18:41:51;;;;;;;;;8.25;6.25;;;;;;;;5184139;27;23673;-79
2021/12/11 18:44:17;;;;;;;;;7.75;6.50;;;;;;;;5186089;27;22677;-76
2021/12/11 18:46:42;;;;;;;;;16.00;10.25;;;;;;;;5186184;27;11528;-75
2021/12/11 18:49:11;;;;;;;;;11.50;9.00;;;;;;;;5185108;27;22305;-76
2021/12/11 18:51:38;;;;;;;;;19.33;12.00;;;;;;;;5184354;27;21658;-78
2021/12/11 18:54:06;;;;;;;;;15.00;12.00;;;;;;;;5184941;27;21513;-78
2021/12/11 18:56:33;;;;;;;;;15.75;11.00;;;;;;;;5185373;27;11402;-75
2021/12/11 18:59:00;;;;;;;;;12.25;11.75;;;;;;;;5184124;27;12165;-70
2021/12/11 19:01:32;;;;;;;;;19.00;17.00;;;;;;;;5183648;27;11805;-68
2021/12/11 19:04:00;;;;;;;;;17.67;16.00;;;;;;;;5185471;27;11739;-70
2021/12/11 19:06:28;;;;;;;;;15.67;13.67;;;;;;;;5184150;27;11419;-70
2021/12/11 19:08:55;;;;;;;;;13.50;10.00;;;;;;;;5184038;27;11724;-70
2021/12/11 19:11:23;;;;;;;;;17.33;15.33;;;;;;;;5183466;27;11505;-69
2021/12/11 19:13:49;;;;;;;;;15.00;14.00;;;;;;;;5184434;27;11447;-71
2021/12/11 19:16:16;;;;;;;;;11.00;10.33;;;;;;;;5184684;27;11692;-70
2021/12/11 19:18:44;;;;;;;;;8.25;5.25;;;;;;;;5184087;27;11492;-71
2021/12/11 19:21:16;;;;;;;;;7.50;4.00;;;;;;;;5183962;27;22578;-71
2021/12/11 19:23:42;;;;;;;;;3.50;2.00;;;;;;;;5181415;27;11545;-70
2021/12/11 19:26:08;;;;;;;;;7.00;5.75;;;;;;;;5183634;27;12506;-71
2021/12/11 19:28:36;;;;;;;;;5.00;4.50;;;;;;;;5184479;27;11399;-71
2021/12/11 19:31:07;;;;;;;;;0.00;0.00;;;;;;;;5182523;27;11647;-73
2021/12/11 19:33:33;;;;;;;;;4.75;4.75;;;;;;;;5182300;27;11539;-72
2021/12/11 19:36:01;;;;;;;;;4.00;4.00;;;;;;;;5164137;27;13784;-72
2021/12/11 19:38:26;;;;;;;;;5.75;5.00;;;;;;;;5182458;27;11426;-68
2021/12/11 19:40:54;;;;;;;;;12.67;11.00;;;;;;;;5160537;27;11845;-71
2021/12/11 19:43:19;;;;;;;;;12.00;11.00;;;;;;;;5181580;27;22406;-70
2021/12/11 19:45:45;;;;;;;;;11.00;11.00;;;;;;;;5182456;27;11520;-70
2021/12/11 19:48:11;;;;;;;;;1.00;0.00;;;;;;;;5182141;27;8806;-69
2021/12/11 19:50:39;;;;;;;;;11.00;9.00;;;;;;;;5181822;27;22251;-68
2021/12/11 19:53:06;;;;;;;;;5.00;5.00;;;;;;;;5181169;27;21457;-70
2021/12/11 19:55:32;;;;;;;;;8.25;6.25;;;;;;;;5181366;27;21446;-69
2021/12/11 19:57:57;;;;;;;;;8.00;5.00;;;;;;;;5182132;27;11395;-69